Time;durP1;ratioP1;P1;durP2;ratioP2;P2;SDS_P1;SDS_P2;PMS_P1;PMS_P2;Temp;Humidity;BMP_temperature;BMP_pressure;BME280_temperature;BME280_humidity;BME280_pressure;Samples;Min_cycle;Max_cycle;Signal;HPM_P1;HPM_P2
2023/07/24 00:00:41;;;;;;;11.70;8.27;;;;;;;;;;4972343;28;20273;-65
2023/07/24 00:03:08;;;;;;;10.77;8.10;;;;;;;;;;4971373;28;20184;-65
2023/07/24 00:05:35;;;;;;;10.90;7.87;;;;;;;;;;4967269;28;20304;-65
2023/07/24 00:08:19;;;;;;;13.43;8.20;;;;;;;;;;4970496;28;20177;-65
2023/07/24 00:10:46;;;;;;;11.67;7.73;;;;;;;;;;4971911;28;20620;-65
2023/07/24 00:13:12;;;;;;;13.47;7.73;;;;;;;;;;4971341;28;20221;-65
2023/07/24 00:15:39;;;;;;;11.37;8.27;;;;;;;;;;4970039;28;20198;-65
2023/07/24 00:18:06;;;;;;;10.30;6.93;;;;;;;;;;4969991;28;20778;-65
2023/07/24 00:20:50;;;;;;;10.33;7.07;;;;;;;;;;4972180;28;20173;-64
2023/07/24 00:23:17;;;;;;;10.07;7.10;;;;;;;;;;4969782;28;20190;-65
2023/07/24 00:25:44;;;;;;;9.80;7.10;;;;;;;;;;4970036;28;20197;-65
2023/07/24 00:28:11;;;;;;;10.30;7.50;;;;;;;;;;4969299;28;20590;-65
2023/07/24 00:30:37;;;;;;;12.27;7.17;;;;;;;;;;4954610;28;20201;-65
2023/07/24 00:33:04;;;;;;;13.10;7.30;;;;;;;;;;4969400;28;20208;-65
2023/07/24 00:35:31;;;;;;;9.90;7.13;;;;;;;;;;4971131;28;20204;-65
2023/07/24 00:37:57;;;;;;;9.93;6.97;;;;;;;;;;4952231;28;20280;-65
2023/07/24 00:40:25;;;;;;;10.83;6.20;;;;;;;;;;4952265;28;20568;-65
2023/07/24 00:42:51;;;;;;;7.60;6.33;;;;;;;;;;4954231;28;20193;-65
2023/07/24 00:45:18;;;;;;;9.40;6.70;;;;;;;;;;4969164;28;20229;-65
2023/07/24 00:47:45;;;;;;;8.03;6.30;;;;;;;;;;4954903;28;20199;-65
2023/07/24 00:50:13;;;;;;;10.70;6.40;;;;;;;;;;4969269;28;20213;-65
2023/07/24 01:28:39;;;;;;;7.93;6.13;;;;;;;;;;4955127;29;20181;-65
2023/07/24 01:31:06;;;;;;;9.07;6.07;;;;;;;;;;4969844;28;20198;-65
2023/07/24 01:33:35;;;;;;;10.40;7.37;;;;;;;;;;4975186;28;20228;-65
2023/07/24 01:36:02;;;;;;;9.30;6.53;;;;;;;;;;4975016;28;20197;-65
2023/07/24 01:38:47;;;;;;;9.57;6.40;;;;;;;;;;4943811;28;20252;-65
2023/07/24 01:41:13;;;;;;;9.03;6.87;;;;;;;;;;4971672;28;20236;-65
2023/07/24 01:43:40;;;;;;;9.40;6.63;;;;;;;;;;4954073;28;20317;-65
2023/07/24 01:46:08;;;;;;;9.13;5.87;;;;;;;;;;4961034;28;20204;-65
2023/07/24 01:48:35;;;;;;;9.83;6.07;;;;;;;;;;4973435;28;20189;-65
2023/07/24 01:51:02;;;;;;;11.63;6.60;;;;;;;;;;4973671;28;20203;-65
2023/07/24 01:53:28;;;;;;;10.43;5.50;;;;;;;;;;4973960;28;20221;-65
2023/07/24 01:55:55;;;;;;;10.93;6.17;;;;;;;;;;4972285;28;20657;-64
2023/07/24 01:58:22;;;;;;;10.10;5.73;;;;;;;;;;4954714;28;20198;-65
2023/07/24 02:00:49;;;;;;;9.00;6.73;;;;;;;;;;4955270;28;20236;-65
2023/07/24 02:03:15;;;;;;;10.97;5.90;;;;;;;;;;4973892;28;20209;-65
2023/07/24 02:05:59;;;;;;;10.57;6.00;;;;;;;;;;4974439;28;20545;-65
2023/07/24 02:08:26;;;;;;;8.77;6.73;;;;;;;;;;4955241;28;20193;-62
2023/07/24 02:11:10;;;;;;;9.80;6.40;;;;;;;;;;4955070;28;20716;-62
2023/07/24 02:13:37;;;;;;;8.73;6.30;;;;;;;;;;4955008;28;20213;-62
2023/07/24 02:16:04;;;;;;;8.70;6.63;;;;;;;;;;4970749;28;20204;-62
2023/07/24 02:18:31;;;;;;;14.73;5.93;;;;;;;;;;4969887;28;20200;-62
2023/07/24 02:20:57;;;;;;;8.27;6.53;;;;;;;;;;4973780;28;20194;-62
2023/07/24 02:23:24;;;;;;;11.03;6.57;;;;;;;;;;4973568;28;20193;-62
2023/07/24 02:25:52;;;;;;;11.13;6.03;;;;;;;;;;4972106;28;20197;-62
2023/07/24 02:28:18;;;;;;;7.47;6.40;;;;;;;;;;4971749;28;20189;-63
2023/07/24 02:30:46;;;;;;;8.50;6.57;;;;;;;;;;4973821;28;20198;-63
2023/07/24 02:33:13;;;;;;;9.87;6.73;;;;;;;;;;4974132;28;20305;-62
2023/07/24 02:35:41;;;;;;;9.50;7.27;;;;;;;;;;4961768;28;20214;-62
2023/07/24 02:38:25;;;;;;;9.23;7.00;;;;;;;;;;4969803;28;20174;-62
2023/07/24 02:40:51;;;;;;;9.47;6.67;;;;;;;;;;4955923;28;20276;-63
2023/07/24 02:43:36;;;;;;;9.73;6.90;;;;;;;;;;4958669;28;20345;-62
2023/07/24 02:46:02;;;;;;;11.17;7.17;;;;;;;;;;4955748;28;20229;-62
2023/07/24 02:48:29;;;;;;;8.80;6.90;;;;;;;;;;4955371;28;20205;-63
2023/07/24 02:50:56;;;;;;;10.47;6.93;;;;;;;;;;4968973;28;20708;-63
2023/07/24 02:53:23;;;;;;;10.83;7.37;;;;;;;;;;4968322;28;20853;-62
2023/07/24 02:55:49;;;;;;;9.67;7.47;;;;;;;;;;4972804;28;20635;-63
2023/07/24 02:58:16;;;;;;;9.27;7.37;;;;;;;;;;4971967;28;20212;-62
2023/07/24 03:00:43;;;;;;;9.77;7.60;;;;;;;;;;4972615;28;20673;-62
2023/07/24 03:03:10;;;;;;;13.17;8.60;;;;;;;;;;4938727;28;20197;-63
2023/07/24 03:05:37;;;;;;;14.17;9.10;;;;;;;;;;4973290;28;20281;-62
2023/07/24 03:08:04;;;;;;;15.30;10.17;;;;;;;;;;4969866;28;20220;-64
2023/07/24 03:10:30;;;;;;;13.10;9.53;;;;;;;;;;4954871;28;20757;-65
2023/07/24 03:12:57;;;;;;;12.67;10.47;;;;;;;;;;4973414;28;20212;-65
2023/07/24 03:15:24;;;;;;;14.63;9.50;;;;;;;;;;4972005;28;20721;-65
2023/07/24 03:18:08;;;;;;;12.20;8.87;;;;;;;;;;4971809;28;20584;-65
2023/07/24 03:20:35;;;;;;;13.47;9.63;;;;;;;;;;4957574;28;20727;-65
2023/07/24 03:23:02;;;;;;;12.97;8.97;;;;;;;;;;4954310;28;20205;-66
2023/07/24 03:25:31;;;;;;;11.27;8.37;;;;;;;;;;4952293;28;20301;-65
2023/07/24 03:27:58;;;;;;;13.37;8.60;;;;;;;;;;4970420;28;20205;-65
2023/07/24 03:30:25;;;;;;;11.80;8.70;;;;;;;;;;4953683;28;20304;-65
2023/07/24 03:32:52;;;;;;;10.70;8.17;;;;;;;;;;4972385;28;20300;-65
2023/07/24 03:35:18;;;;;;;11.93;8.00;;;;;;;;;;4969466;28;20708;-65
2023/07/24 03:37:45;;;;;;;11.70;8.67;;;;;;;;;;4972319;28;20182;-66
2023/07/24 03:40:12;;;;;;;9.47;7.83;;;;;;;;;;4954094;28;20194;-65
2023/07/24 03:42:38;;;;;;;13.77;8.63;;;;;;;;;;4971974;28;20248;-65
2023/07/24 03:45:05;;;;;;;11.10;7.70;;;;;;;;;;4970953;28;20261;-65
2023/07/24 03:47:32;;;;;;;11.20;8.00;;;;;;;;;;4970330;28;20584;-65
2023/07/24 03:49:59;;;;;;;8.97;7.40;;;;;;;;;;4971955;28;20669;-65
2023/07/24 03:52:25;;;;;;;10.87;7.77;;;;;;;;;;4971598;28;20217;-65
2023/07/24 03:54:52;;;;;;;10.63;8.00;;;;;;;;;;4971368;28;20217;-65
2023/07/24 03:57:19;;;;;;;10.27;7.63;;;;;;;;;;4971674;28;20189;-65
2023/07/24 03:59:45;;;;;;;9.40;7.10;;;;;;;;;;4971681;28;20653;-65
2023/07/24 04:02:12;;;;;;;9.67;8.00;;;;;;;;;;4970641;28;20194;-65
2023/07/24 04:04:39;;;;;;;9.17;7.43;;;;;;;;;;4970897;28;20656;-65
2023/07/24 04:07:05;;;;;;;9.63;7.07;;;;;;;;;;4952678;28;20733;-65
2023/07/24 04:09:32;;;;;;;9.83;7.47;;;;;;;;;;4971812;28;20196;-65
2023/07/24 04:11:59;;;;;;;10.73;7.63;;;;;;;;;;4971073;28;20193;-67
2023/07/24 04:14:25;;;;;;;9.50;7.70;;;;;;;;;;4968811;28;20304;-65
2023/07/24 04:16:53;;;;;;;11.47;8.03;;;;;;;;;;4970901;28;20736;-65
2023/07/24 04:19:20;;;;;;;10.03;7.10;;;;;;;;;;4971113;28;20217;-65
2023/07/24 04:21:47;;;;;;;10.80;7.80;;;;;;;;;;4969162;28;20221;-65
2023/07/24 04:24:14;;;;;;;10.60;7.80;;;;;;;;;;4969798;28;20545;-65
2023/07/24 04:26:42;;;;;;;11.60;8.60;;;;;;;;;;4971401;28;20193;-65
2023/07/24 04:29:26;;;;;;;13.33;8.57;;;;;;;;;;4969387;28;20590;-65
2023/07/24 04:31:53;;;;;;;11.67;7.70;;;;;;;;;;4970287;28;20661;-65
2023/07/24 04:34:20;;;;;;;12.07;8.80;;;;;;;;;;4970436;28;20252;-65
2023/07/24 04:36:46;;;;;;;10.70;7.47;;;;;;;;;;4971739;28;20185;-65
2023/07/24 04:39:13;;;;;;;12.33;7.80;;;;;;;;;;4967539;28;20205;-65
2023/07/24 04:41:56;;;;;;;10.30;7.83;;;;;;;;;;4969675;28;20195;-65
2023/07/24 04:44:23;;;;;;;11.20;7.73;;;;;;;;;;4969606;28;20229;-66
2023/07/24 04:46:50;;;;;;;12.70;7.30;;;;;;;;;;4969361;28;20194;-65
2023/07/24 04:49:17;;;;;;;9.27;6.87;;;;;;;;;;4969947;28;20560;-65
2023/07/24 04:51:43;;;;;;;8.53;6.53;;;;;;;;;;4971677;28;20200;-65
2023/07/24 04:54:11;;;;;;;9.17;6.67;;;;;;;;;;4969756;28;20320;-69
2023/07/24 04:56:38;;;;;;;9.10;6.10;;;;;;;;;;4969714;28;20205;-65
2023/07/24 04:59:05;;;;;;;9.37;5.90;;;;;;;;;;4951660;28;20219;-65
2023/07/24 05:01:31;;;;;;;6.73;5.93;;;;;;;;;;4968695;28;20287;-65
2023/07/24 05:03:58;;;;;;;8.20;6.00;;;;;;;;;;4965808;28;20191;-65
2023/07/24 05:06:25;;;;;;;9.70;5.90;;;;;;;;;;4971697;28;20185;-65
2023/07/24 05:09:09;;;;;;;7.93;5.77;;;;;;;;;;4939930;28;20181;-68
2023/07/24 05:11:36;;;;;;;6.70;5.40;;;;;;;;;;4959859;28;20236;-69
2023/07/24 05:14:04;;;;;;;7.63;5.80;;;;;;;;;;4965892;28;20231;-70
2023/07/24 05:16:31;;;;;;;7.80;5.83;;;;;;;;;;4949320;28;20249;-68
2023/07/24 05:18:58;;;;;;;6.40;5.23;;;;;;;;;;4962739;28;20189;-67
2023/07/24 05:21:25;;;;;;;7.60;5.50;;;;;;;;;;4957266;28;20238;-68
2023/07/24 05:23:52;;;;;;;7.20;5.73;;;;;;;;;;4943874;28;20186;-69
2023/07/24 05:26:18;;;;;;;8.80;6.20;;;;;;;;;;4966733;28;20628;-70
2023/07/24 05:28:46;;;;;;;7.97;5.37;;;;;;;;;;4950535;28;20215;-68
2023/07/24 05:31:12;;;;;;;7.87;5.67;;;;;;;;;;4967799;28;20197;-69
2023/07/24 05:33:39;;;;;;;7.27;5.60;;;;;;;;;;4967028;28;20186;-69
2023/07/24 05:36:06;;;;;;;7.87;5.60;;;;;;;;;;4969196;28;20217;-69
2023/07/24 05:38:33;;;;;;;7.40;5.37;;;;;;;;;;4951463;28;20197;-68
2023/07/24 05:41:00;;;;;;;6.70;5.33;;;;;;;;;;4967095;28;20653;-68
2023/07/24 05:43:27;;;;;;;6.17;5.20;;;;;;;;;;4950241;28;20238;-68
2023/07/24 05:45:54;;;;;;;6.67;5.43;;;;;;;;;;4969656;28;20194;-68
2023/07/24 05:48:21;;;;;;;6.47;5.37;;;;;;;;;;4967418;28;20208;-70
2023/07/24 05:50:48;;;;;;;6.43;5.07;;;;;;;;;;4952675;28;20189;-67
2023/07/24 05:53:15;;;;;;;7.40;5.10;;;;;;;;;;4971927;28;20613;-67
2023/07/24 05:55:43;;;;;;;6.83;5.13;;;;;;;;;;4970915;28;20550;-67
2023/07/24 05:58:10;;;;;;;7.27;4.50;;;;;;;;;;4971824;28;20211;-67
2023/07/24 06:00:37;;;;;;;5.90;4.70;;;;;;;;;;4952833;28;20181;-68
2023/07/24 06:03:03;;;;;;;6.80;4.60;;;;;;;;;;4971987;28;20280;-67
2023/07/24 06:05:54;;;;;;;8.23;4.90;;;;;;;;;;4969813;28;20188;-67
2023/07/24 06:08:21;;;;;;;6.07;4.43;;;;;;;;;;4954375;28;20260;-68
2023/07/24 06:11:05;;;;;;;6.83;4.30;;;;;;;;;;4969484;28;20229;-65
2023/07/24 06:13:32;;;;;;;6.00;4.47;;;;;;;;;;4968621;28;20233;-67
2023/07/24 06:15:59;;;;;;;5.13;4.60;;;;;;;;;;4968010;28;20638;-70
2023/07/24 06:18:27;;;;;;;5.47;4.37;;;;;;;;;;4970056;28;20224;-78
2023/07/24 06:20:53;;;;;;;5.83;4.40;;;;;;;;;;4972566;28;20208;-65
2023/07/24 06:23:20;;;;;;;8.07;4.10;;;;;;;;;;4969564;28;20193;-66
2023/07/24 06:25:47;;;;;;;6.57;4.70;;;;;;;;;;4952532;28;20607;-66
2023/07/24 06:28:14;;;;;;;7.23;4.13;;;;;;;;;;4969315;28;20186;-66
2023/07/24 06:30:40;;;;;;;5.63;4.30;;;;;;;;;;4970200;28;20229;-66
2023/07/24 06:33:07;;;;;;;8.13;3.83;;;;;;;;;;4969305;28;20198;-66
2023/07/24 06:35:34;;;;;;;7.63;4.20;;;;;;;;;;4966130;28;20236;-66
2023/07/24 06:38:01;;;;;;;6.10;4.67;;;;;;;;;;4968604;28;20192;-66
2023/07/24 06:40:28;;;;;;;8.27;3.90;;;;;;;;;;4969067;28;20197;-66
2023/07/24 06:42:54;;;;;;;4.63;3.73;;;;;;;;;;4968785;28;20186;-66
2023/07/24 06:45:21;;;;;;;6.33;3.77;;;;;;;;;;4968471;28;20580;-66
2023/07/24 06:47:48;;;;;;;6.67;3.97;;;;;;;;;;4969332;28;20221;-65
2023/07/24 06:50:15;;;;;;;6.43;3.87;;;;;;;;;;4969429;28;20186;-66
2023/07/24 06:52:42;;;;;;;4.70;3.50;;;;;;;;;;4952660;28;20193;-68
2023/07/24 06:55:09;;;;;;;5.47;4.13;;;;;;;;;;4950644;28;20232;-66
2023/07/24 06:57:36;;;;;;;6.17;3.53;;;;;;;;;;4954268;28;20209;-65
2023/07/24 07:00:03;;;;;;;5.60;3.63;;;;;;;;;;4969387;28;20194;-66
2023/07/24 07:02:29;;;;;;;4.93;3.60;;;;;;;;;;4969809;28;21244;-65
2023/07/24 07:04:56;;;;;;;7.30;3.37;;;;;;;;;;4970889;28;20194;-66
2023/07/24 07:07:40;;;;;;;5.37;3.60;;;;;;;;;;4970940;28;20248;-66
2023/07/24 07:10:07;;;;;;;4.80;3.93;;;;;;;;;;4925208;28;20210;-66
2023/07/24 07:12:34;;;;;;;5.50;3.67;;;;;;;;;;4952061;28;20713;-67
2023/07/24 07:15:01;;;;;;;3.87;3.40;;;;;;;;;;4970785;28;20197;-66
2023/07/24 07:17:28;;;;;;;6.20;4.03;;;;;;;;;;4971009;28;20197;-66
2023/07/24 07:19:56;;;;;;;6.07;3.70;;;;;;;;;;4969421;28;20233;-67
2023/07/24 07:22:23;;;;;;;5.20;3.83;;;;;;;;;;4948060;28;20195;-66
2023/07/24 07:24:52;;;;;;;5.70;3.63;;;;;;;;;;4968906;28;20284;-67
2023/07/24 07:27:19;;;;;;;5.00;3.27;;;;;;;;;;4968419;28;20689;-66
2023/07/24 07:29:46;;;;;;;5.57;3.50;;;;;;;;;;4970172;28;20271;-66
2023/07/24 07:32:12;;;;;;;5.20;3.30;;;;;;;;;;4970774;28;20228;-66
2023/07/24 07:34:39;;;;;;;4.07;3.37;;;;;;;;;;4969760;28;20257;-66
2023/07/24 07:37:06;;;;;;;5.77;3.80;;;;;;;;;;4970534;28;20229;-67
2023/07/24 07:39:33;;;;;;;4.60;3.13;;;;;;;;;;4953597;28;20200;-67
2023/07/24 07:42:00;;;;;;;4.20;3.33;;;;;;;;;;4966110;28;20838;-66
2023/07/24 07:44:43;;;;;;;6.70;3.80;;;;;;;;;;4963989;28;20222;-67
2023/07/24 07:47:27;;;;;;;4.10;3.50;;;;;;;;;;4953318;28;20735;-68
2023/07/24 07:49:54;;;;;;;4.67;3.43;;;;;;;;;;4951956;28;20204;-66
2023/07/24 07:52:22;;;;;;;4.93;3.40;;;;;;;;;;4969082;28;20208;-67
2023/07/24 07:54:49;;;;;;;4.10;3.23;;;;;;;;;;4953010;28;20212;-69
2023/07/24 07:57:18;;;;;;;4.57;3.47;;;;;;;;;;4951857;28;20182;-77
2023/07/24 07:59:45;;;;;;;3.43;2.97;;;;;;;;;;4969344;28;20225;-72
2023/07/24 08:02:12;;;;;;;4.53;3.03;;;;;;;;;;4969292;28;20256;-77
2023/07/24 08:04:38;;;;;;;5.80;3.17;;;;;;;;;;4948895;28;20275;-72
2023/07/24 08:07:07;;;;;;;5.67;3.20;;;;;;;;;;4970666;28;20722;-77
2023/07/24 08:09:33;;;;;;;4.80;2.97;;;;;;;;;;4957947;28;20666;-78
2023/07/24 08:12:01;;;;;;;3.67;3.10;;;;;;;;;;4965626;28;20208;-76
2023/07/24 08:14:30;;;;;;;4.10;2.90;;;;;;;;;;4956248;28;20209;-75
2023/07/24 08:16:57;;;;;;;3.57;2.90;;;;;;;;;;4950102;28;20284;-75
2023/07/24 08:19:24;;;;;;;4.17;2.93;;;;;;;;;;4966907;28;20193;-74
2023/07/24 08:22:08;;;;;;;4.87;2.73;;;;;;;;;;4947150;28;20530;-75
2023/07/24 08:24:35;;;;;;;3.73;2.93;;;;;;;;;;4969034;28;20258;-79
2023/07/24 08:27:02;;;;;;;3.67;2.90;;;;;;;;;;4950409;28;20208;-72
2023/07/24 08:29:30;;;;;;;4.03;2.67;;;;;;;;;;4963954;28;20248;-77
2023/07/24 08:31:56;;;;;;;4.77;3.40;;;;;;;;;;4952284;28;20252;-81
2023/07/24 08:34:24;;;;;;;4.33;3.30;;;;;;;;;;4951427;28;20220;-73
2023/07/24 08:36:51;;;;;;;7.37;3.10;;;;;;;;;;4949672;28;20202;-72
2023/07/24 08:39:18;;;;;;;5.33;3.23;;;;;;;;;;4966382;28;20279;-71
2023/07/24 08:41:45;;;;;;;3.67;3.00;;;;;;;;;;4966730;28;20235;-72
2023/07/24 08:44:12;;;;;;;3.13;2.83;;;;;;;;;;4967930;28;20273;-71
2023/07/24 08:46:41;;;;;;;4.03;2.77;;;;;;;;;;4950801;28;20203;-74
2023/07/24 08:49:11;;;;;;;4.00;2.93;;;;;;;;;;4951575;28;20283;-73
2023/07/24 08:51:38;;;;;;;4.00;3.17;;;;;;;;;;4961184;28;20725;-70
2023/07/24 08:54:05;;;;;;;4.03;3.30;;;;;;;;;;4936769;28;20259;-70
2023/07/24 08:56:31;;;;;;;3.63;2.97;;;;;;;;;;4965168;28;20299;-71
2023/07/24 08:58:59;;;;;;;3.67;2.60;;;;;;;;;;4948262;29;20195;-71
2023/07/24 09:01:26;;;;;;;3.40;3.00;;;;;;;;;;4962856;28;20317;-71
2023/07/24 09:03:53;;;;;;;6.97;3.10;;;;;;;;;;4965855;28;21099;-70
2023/07/24 09:06:20;;;;;;;4.87;2.90;;;;;;;;;;4968249;28;20214;-78
2023/07/24 09:08:47;;;;;;;4.37;2.87;;;;;;;;;;4946539;28;20277;-74
2023/07/24 09:11:14;;;;;;;6.50;2.90;;;;;;;;;;4968227;28;20235;-69
2023/07/24 09:13:42;;;;;;;6.60;2.60;;;;;;;;;;4970452;28;20247;-72
2023/07/24 09:16:08;;;;;;;3.60;2.40;;;;;;;;;;4953109;28;20220;-71
2023/07/24 09:18:40;;;;;;;3.47;2.10;;;;;;;;;;4970231;28;20203;-72
2023/07/24 09:21:07;;;;;;;5.47;2.30;;;;;;;;;;4970206;28;20256;-71
2023/07/24 09:23:35;;;;;;;3.77;2.47;;;;;;;;;;4953415;28;20186;-71
2023/07/24 09:26:19;;;;;;;3.57;2.37;;;;;;;;;;4971699;28;20181;-70
2023/07/24 09:28:53;;;;;;;4.50;2.80;;;;;;;;;;4974314;28;20227;-70
2023/07/24 09:31:20;;;;;;;3.60;2.60;;;;;;;;;;4939677;28;20211;-71
2023/07/24 09:33:47;;;;;;;4.67;2.77;;;;;;;;;;4973719;28;20216;-71
2023/07/24 09:36:14;;;;;;;3.10;2.70;;;;;;;;;;4955994;28;20217;-70
2023/07/24 09:38:41;;;;;;;3.97;2.70;;;;;;;;;;4973750;28;20656;-74
2023/07/24 09:41:08;;;;;;;5.03;3.07;;;;;;;;;;4953533;28;20207;-76
2023/07/24 09:43:35;;;;;;;5.00;3.13;;;;;;;;;;4961931;28;20562;-75
2023/07/24 09:46:07;;;;;;;3.87;2.90;;;;;;;;;;4971850;28;20200;-80
2023/07/24 09:48:39;;;;;;;4.37;3.27;;;;;;;;;;4950821;28;20196;-81
2023/07/24 09:51:27;;;;;;;5.10;3.07;;;;;;;;;;4970686;28;20201;-81
2023/07/24 09:53:54;;;;;;;4.83;3.03;;;;;;;;;;4956193;28;20204;-75
2023/07/24 09:56:21;;;;;;;4.47;3.00;;;;;;;;;;4971906;28;20338;-79
2023/07/24 09:59:04;;;;;;;3.40;2.80;;;;;;;;;;4972593;28;20204;-74
2023/07/24 10:01:32;;;;;;;3.23;2.80;;;;;;;;;;4955454;28;20189;-83
2023/07/24 10:04:01;;;;;;;3.93;2.67;;;;;;;;;;4953708;28;20191;-84
2023/07/24 10:06:29;;;;;;;4.73;3.00;;;;;;;;;;4955133;28;20193;-84
2023/07/24 10:08:57;;;;;;;4.07;2.90;;;;;;;;;;4949052;28;20198;-74
2023/07/24 10:11:24;;;;;;;3.47;2.63;;;;;;;;;;4953921;28;20202;-79
2023/07/24 10:13:52;;;;;;;4.20;2.67;;;;;;;;;;4941215;29;20628;-76
2023/07/24 10:16:21;;;;;;;3.57;2.67;;;;;;;;;;4969331;28;20304;-76
2023/07/24 10:18:48;;;;;;;5.87;2.63;;;;;;;;;;4971802;28;20666;-74
2023/07/24 10:21:15;;;;;;;3.83;2.73;;;;;;;;;;4952180;28;20197;-74
2023/07/24 10:24:00;;;;;;;3.13;2.80;;;;;;;;;;4937558;29;20182;-72
2023/07/24 10:26:27;;;;;;;3.97;2.50;;;;;;;;;;4953209;28;20197;-72
2023/07/24 10:29:13;;;;;;;5.27;2.53;;;;;;;;;;4956486;28;20189;-73
2023/07/24 10:31:40;;;;;;;3.50;2.73;;;;;;;;;;4954609;28;20661;-73
2023/07/24 10:34:07;;;;;;;5.90;2.60;;;;;;;;;;4970248;28;20280;-72
2023/07/24 10:36:35;;;;;;;4.27;2.77;;;;;;;;;;4953011;28;20225;-74
2023/07/24 10:39:02;;;;;;;3.10;2.40;;;;;;;;;;4953653;28;20208;-65
2023/07/24 10:41:35;;;;;;;5.40;3.00;;;;;;;;;;4969588;28;20793;-67
2023/07/24 10:44:02;;;;;;;4.23;2.83;;;;;;;;;;4971689;28;20704;-67
2023/07/24 10:46:36;;;;;;;3.80;2.80;;;;;;;;;;4971630;28;20193;-68
2023/07/24 10:49:03;;;;;;;3.40;2.37;;;;;;;;;;4960493;28;20277;-69
2023/07/24 10:51:32;;;;;;;2.97;2.50;;;;;;;;;;4967872;28;20253;-65
2023/07/24 10:53:59;;;;;;;3.07;2.73;;;;;;;;;;4970532;28;20288;-66
2023/07/24 10:56:26;;;;;;;3.23;2.57;;;;;;;;;;4957948;28;20221;-66
2023/07/24 10:59:10;;;;;;;5.00;2.50;;;;;;;;;;4961657;28;20174;-66
2023/07/24 11:01:37;;;;;;;4.20;2.57;;;;;;;;;;4969214;28;20276;-65
2023/07/24 11:04:04;;;;;;;4.13;2.50;;;;;;;;;;4954263;28;20248;-66
2023/07/24 11:06:30;;;;;;;4.13;2.87;;;;;;;;;;4971846;28;20259;-66
2023/07/24 11:08:58;;;;;;;3.93;2.60;;;;;;;;;;4949610;28;20185;-66
2023/07/24 11:11:32;;;;;;;4.77;2.30;;;;;;;;;;4971836;28;20190;-66
2023/07/24 11:14:03;;;;;;;3.13;2.37;;;;;;;;;;4965492;28;20276;-66
2023/07/24 11:16:31;;;;;;;3.97;2.67;;;;;;;;;;4967890;28;20215;-66
2023/07/24 11:18:58;;;;;;;3.63;2.90;;;;;;;;;;4970086;28;20194;-66
2023/07/24 11:21:25;;;;;;;3.57;2.90;;;;;;;;;;4935815;28;20653;-66
2023/07/24 11:24:10;;;;;;;5.93;2.80;;;;;;;;;;4954468;28;20209;-66
2023/07/24 11:26:37;;;;;;;3.00;2.70;;;;;;;;;;4951621;28;20193;-65
2023/07/24 11:29:21;;;;;;;3.67;2.80;;;;;;;;;;4968273;28;20178;-65
2023/07/24 11:31:53;;;;;;;3.77;3.03;;;;;;;;;;4968483;28;20814;-66
2023/07/24 11:34:37;;;;;;;3.67;2.70;;;;;;;;;;4968292;28;20700;-66
2023/07/24 11:37:04;;;;;;;3.13;2.57;;;;;;;;;;4968096;28;20232;-67
2023/07/24 11:39:31;;;;;;;3.47;2.83;;;;;;;;;;4935519;28;20216;-67
2023/07/24 11:41:59;;;;;;;2.97;2.67;;;;;;;;;;4968233;28;20263;-67
2023/07/24 11:44:26;;;;;;;3.00;2.70;;;;;;;;;;4951093;28;20304;-67
2023/07/24 11:47:11;;;;;;;3.70;2.80;;;;;;;;;;4950177;28;20560;-66
2023/07/24 11:49:45;;;;;;;4.27;2.43;;;;;;;;;;4968044;28;20645;-66
2023/07/24 11:52:12;;;;;;;3.70;2.80;;;;;;;;;;4967681;28;20687;-65
2023/07/24 11:54:39;;;;;;;4.87;2.90;;;;;;;;;;4967622;28;20196;-65
2023/07/24 11:57:15;;;;;;;5.73;3.10;;;;;;;;;;4967542;28;20305;-67
2023/07/24 11:59:42;;;;;;;4.70;3.20;;;;;;;;;;4950798;28;20195;-65
2023/07/24 12:02:10;;;;;;;4.03;2.90;;;;;;;;;;4967245;28;20197;-64
2023/07/24 12:04:37;;;;;;;3.33;2.70;;;;;;;;;;4951442;28;20238;-63
2023/07/24 12:07:08;;;;;;;4.13;2.60;;;;;;;;;;4969404;28;20207;-62
2023/07/24 12:09:35;;;;;;;3.27;2.90;;;;;;;;;;4949610;28;20334;-65
2023/07/24 12:12:05;;;;;;;4.20;3.13;;;;;;;;;;4970563;28;20199;-63
2023/07/24 12:14:32;;;;;;;4.20;2.90;;;;;;;;;;4970929;28;20194;-63
2023/07/24 12:17:02;;;;;;;4.80;2.70;;;;;;;;;;4968738;28;20338;-62
2023/07/24 12:19:30;;;;;;;3.40;3.00;;;;;;;;;;4967444;28;20560;-62
2023/07/24 12:22:16;;;;;;;4.90;2.50;;;;;;;;;;4969059;28;20217;-64
2023/07/24 12:24:42;;;;;;;2.73;2.47;;;;;;;;;;4952701;28;20190;-62
2023/07/24 12:27:26;;;;;;;5.87;3.33;;;;;;;;;;4963100;28;20195;-62
2023/07/24 12:29:53;;;;;;;3.10;2.60;;;;;;;;;;4952223;28;20208;-63
2023/07/24 12:32:22;;;;;;;3.13;2.83;;;;;;;;;;4969448;28;20201;-64
2023/07/24 12:34:52;;;;;;;5.23;2.70;;;;;;;;;;4969363;28;20274;-63
2023/07/24 12:37:19;;;;;;;3.77;2.90;;;;;;;;;;4969115;28;20214;-64
2023/07/24 12:40:06;;;;;;;3.27;2.43;;;;;;;;;;4969564;28;20181;-64
2023/07/24 12:42:33;;;;;;;3.93;2.90;;;;;;;;;;4969319;28;20264;-64
2023/07/24 12:45:02;;;;;;;5.53;2.27;;;;;;;;;;4968246;28;20233;-64
2023/07/24 12:47:29;;;;;;;2.67;2.30;;;;;;;;;;4970232;28;20724;-64
2023/07/24 12:49:57;;;;;;;2.90;2.33;;;;;;;;;;4969802;28;20209;-63
2023/07/24 12:52:41;;;;;;;3.83;2.40;;;;;;;;;;4970265;28;20173;-62
2023/07/24 12:55:08;;;;;;;3.20;2.27;;;;;;;;;;4970094;28;20188;-63
2023/07/24 12:57:35;;;;;;;3.73;2.40;;;;;;;;;;4969698;28;20219;-63
2023/07/24 13:00:02;;;;;;;3.10;2.70;;;;;;;;;;4968440;28;20268;-67
2023/07/24 13:02:29;;;;;;;3.57;2.13;;;;;;;;;;4971647;28;20671;-65
2023/07/24 13:04:57;;;;;;;3.10;2.37;;;;;;;;;;4973310;28;20247;-63
2023/07/24 13:07:24;;;;;;;2.80;2.50;;;;;;;;;;4955125;28;20306;-65
2023/07/24 13:09:51;;;;;;;3.13;2.17;;;;;;;;;;4935052;28;20290;-63
2023/07/24 13:12:18;;;;;;;3.60;1.97;;;;;;;;;;4973673;28;20284;-63
2023/07/24 13:14:45;;;;;;;2.30;2.00;;;;;;;;;;4973233;28;20540;-64
2023/07/24 13:17:12;;;;;;;2.50;1.80;;;;;;;;;;4971890;28;20276;-64
2023/07/24 13:19:40;;;;;;;2.60;1.90;;;;;;;;;;4972965;28;20193;-64
2023/07/24 13:22:07;;;;;;;2.77;2.07;;;;;;;;;;4973621;28;20185;-63
2023/07/24 13:24:34;;;;;;;5.13;2.10;;;;;;;;;;4956931;28;20191;-63
2023/07/24 13:27:01;;;;;;;2.43;2.10;;;;;;;;;;4972831;28;20201;-65
2023/07/24 13:29:29;;;;;;;2.77;1.97;;;;;;;;;;4973426;28;20190;-63
2023/07/24 13:31:56;;;;;;;2.67;2.13;;;;;;;;;;4971566;28;20279;-62
2023/07/24 13:34:25;;;;;;;2.80;1.93;;;;;;;;;;4953083;28;20241;-63
2023/07/24 13:36:52;;;;;;;2.50;1.83;;;;;;;;;;4972688;28;20224;-63
2023/07/24 13:39:19;;;;;;;3.87;2.00;;;;;;;;;;4973325;28;20193;-62
2023/07/24 13:41:46;;;;;;;3.10;2.17;;;;;;;;;;4972945;28;20284;-63
2023/07/24 13:44:13;;;;;;;1.87;1.77;;;;;;;;;;4971746;28;20229;-65
2023/07/24 13:46:40;;;;;;;4.80;1.90;;;;;;;;;;4971496;28;20483;-64
2023/07/24 13:49:07;;;;;;;3.40;1.63;;;;;;;;;;4974120;28;20642;-65
2023/07/24 13:51:34;;;;;;;2.30;1.83;;;;;;;;;;4970893;28;20203;-63
2023/07/24 13:54:01;;;;;;;1.63;1.47;;;;;;;;;;4972452;28;20239;-63
2023/07/24 13:56:31;;;;;;;2.17;1.70;;;;;;;;;;4972032;28;20213;-62
2023/07/24 13:58:57;;;;;;;2.77;1.67;;;;;;;;;;4971968;28;20270;-63
2023/07/24 14:01:24;;;;;;;3.10;1.87;;;;;;;;;;4972233;28;20198;-63
2023/07/24 14:03:54;;;;;;;2.10;1.80;;;;;;;;;;4972050;28;20724;-62
2023/07/24 14:06:22;;;;;;;1.87;1.60;;;;;;;;;;4970569;28;20194;-63
2023/07/24 14:08:48;;;;;;;2.63;1.60;;;;;;;;;;4970838;28;20256;-63
2023/07/24 14:11:15;;;;;;;2.03;1.60;;;;;;;;;;4947294;28;20268;-63
2023/07/24 14:13:42;;;;;;;3.07;1.80;;;;;;;;;;4969892;28;20202;-63
2023/07/24 14:16:08;;;;;;;3.07;1.90;;;;;;;;;;4971686;28;20224;-63
2023/07/24 14:18:35;;;;;;;2.50;1.50;;;;;;;;;;4972152;28;20703;-64
2023/07/24 14:21:02;;;;;;;2.10;1.90;;;;;;;;;;4971850;28;20194;-63
2023/07/24 14:23:30;;;;;;;3.53;1.70;;;;;;;;;;4971911;28;20186;-63
2023/07/24 14:26:15;;;;;;;4.33;2.00;;;;;;;;;;4970524;28;20173;-64
2023/07/24 14:28:41;;;;;;;2.00;1.80;;;;;;;;;;4969963;28;20673;-62
2023/07/24 14:31:08;;;;;;;2.67;1.80;;;;;;;;;;4971007;28;20189;-63
2023/07/24 14:33:35;;;;;;;2.77;1.50;;;;;;;;;;4971618;28;20224;-62
2023/07/24 14:36:06;;;;;;;4.57;2.27;;;;;;;;;;4971342;28;20231;-73
2023/07/24 14:38:52;;;;;;;3.30;1.70;;;;;;;;;;4972394;28;20284;-75
2023/07/24 14:41:18;;;;;;;3.10;1.70;;;;;;;;;;4954288;28;20192;-77
2023/07/24 14:43:47;;;;;;;2.40;1.60;;;;;;;;;;4968421;28;20329;-68
2023/07/24 14:46:14;;;;;;;2.17;1.70;;;;;;;;;;4966935;28;20201;-74
2023/07/24 14:48:40;;;;;;;2.33;1.83;;;;;;;;;;4972328;28;20205;-72
2023/07/24 14:51:26;;;;;;;2.00;1.80;;;;;;;;;;4971821;28;20585;-66
2023/07/24 14:53:53;;;;;;;2.47;2.10;;;;;;;;;;4971705;28;20209;-65
2023/07/24 14:56:37;;;;;;;1.93;1.60;;;;;;;;;;4970733;28;20205;-66
2023/07/24 14:59:20;;;;;;;2.20;1.60;;;;;;;;;;4971826;28;20189;-66
2023/07/24 15:01:47;;;;;;;2.27;1.87;;;;;;;;;;4969589;28;20182;-66
2023/07/24 15:04:14;;;;;;;3.03;1.93;;;;;;;;;;4971073;28;20208;-67
2023/07/24 15:06:41;;;;;;;2.63;1.80;;;;;;;;;;4954680;28;20327;-66
2023/07/24 15:09:07;;;;;;;3.40;1.97;;;;;;;;;;4963753;28;20212;-67
2023/07/24 15:11:34;;;;;;;2.93;2.10;;;;;;;;;;4930508;28;20296;-67
2023/07/24 15:14:01;;;;;;;2.90;1.97;;;;;;;;;;4971294;28;20229;-67
2023/07/24 15:16:28;;;;;;;2.60;2.07;;;;;;;;;;4970323;28;20621;-67
2023/07/24 15:18:54;;;;;;;2.57;1.67;;;;;;;;;;4964925;28;20198;-67
2023/07/24 15:21:21;;;;;;;2.17;1.97;;;;;;;;;;4968605;28;20197;-67
2023/07/24 15:23:51;;;;;;;2.23;1.70;;;;;;;;;;4971013;28;20657;-67
2023/07/24 15:26:18;;;;;;;1.93;1.80;;;;;;;;;;4969922;28;20278;-67